createdAt,value
2023-05-02T00:01:02.208Z,13.01
2023-05-02T00:03:30.137Z,13.02
2023-05-02T00:05:58.006Z,13.02
2023-05-02T00:08:25.630Z,13.02
2023-05-02T00:10:53.604Z,13.02
2023-05-02T00:13:21.247Z,13.02
2023-05-02T00:15:48.955Z,12.99
2023-05-02T00:18:17.343Z,12.97
2023-05-02T00:20:45.562Z,12.68
2023-05-02T00:23:14.015Z,12.63
2023-05-02T00:25:46.063Z,12.90
2023-05-02T00:28:16.858Z,12.89
2023-05-02T00:30:45.677Z,12.87
2023-05-02T00:33:15.076Z,12.86
2023-05-02T00:35:42.811Z,12.81
2023-05-02T00:38:10.753Z,12.80
2023-05-02T00:40:46.155Z,12.78
2023-05-02T00:43:15.109Z,12.58
2023-05-02T00:45:44.138Z,12.43
2023-05-02T00:48:12.368Z,12.56
2023-05-02T00:50:41.977Z,12.55
2023-05-02T00:53:10.645Z,12.85
2023-05-02T00:55:38.630Z,12.84
2023-05-02T00:58:15.060Z,12.79
2023-05-02T01:00:57.784Z,12.69
2023-05-02T01:03:52.822Z,12.85
2023-05-02T01:06:29.208Z,12.84
2023-05-02T01:09:12.315Z,12.81
2023-05-02T01:11:52.085Z,12.80
2023-05-02T01:14:22.205Z,12.76
2023-05-02T01:16:50.331Z,12.76
2023-05-02T01:19:29.430Z,12.75
2023-05-02T01:22:00.063Z,12.74
2023-05-02T01:24:32.823Z,12.77
2023-05-02T01:27:34.497Z,12.75
2023-05-02T01:30:04.683Z,12.74
2023-05-02T01:32:34.988Z,12.74
2023-05-02T01:35:04.770Z,12.45
2023-05-02T01:37:34.083Z,12.40
2023-05-02T01:40:05.740Z,12.52
2023-05-02T01:42:36.495Z,12.61
2023-05-02T01:45:08.735Z,12.63
2023-05-02T01:47:39.180Z,12.58
2023-05-02T01:50:13.687Z,12.58
2023-05-02T01:52:42.438Z,12.57
2023-05-02T01:55:15.223Z,12.53
2023-05-02T01:57:46.194Z,12.55
2023-05-02T02:00:17.644Z,12.54
2023-05-02T02:02:47.845Z,12.30
2023-05-02T02:05:18.063Z,12.25
2023-05-02T02:07:46.630Z,12.47
2023-05-02T02:10:14.544Z,12.45
2023-05-02T02:12:51.088Z,12.42
2023-05-02T02:15:25.984Z,12.24
2023-05-02T02:18:12.117Z,12.15
2023-05-02T02:20:43.996Z,12.34
2023-05-02T02:23:14.724Z,12.34
2023-05-02T02:25:45.302Z,12.36
2023-05-02T02:28:13.397Z,12.40
2023-05-02T02:30:41.259Z,12.40
2023-05-02T02:33:09.314Z,12.31
2023-05-02T02:36:15.252Z,12.39
2023-05-02T02:39:07.341Z,12.42
2023-05-02T02:41:49.857Z,12.35
2023-05-02T02:44:44.242Z,12.33
2023-05-02T02:47:23.697Z,12.30
2023-05-02T02:50:01.250Z,12.17
2023-05-02T02:52:52.893Z,12.34
2023-05-02T02:55:34.654Z,12.03
2023-05-02T02:58:24.639Z,12.33
2023-05-02T03:00:53.209Z,12.30
2023-05-02T03:03:23.307Z,12.31
2023-05-02T03:05:52.631Z,12.25
2023-05-02T03:08:20.829Z,11.91
2023-05-02T03:10:48.638Z,12.15
2023-05-02T03:13:16.538Z,12.15
2023-05-02T03:15:53.852Z,12.09
2023-05-02T03:18:21.953Z,12.05
2023-05-02T03:20:49.447Z,12.04
2023-05-02T03:23:17.517Z,11.98
2023-05-02T03:25:45.713Z,11.98
2023-05-02T03:28:14.156Z,11.81
2023-05-02T03:30:42.467Z,11.96
2023-05-02T03:33:10.498Z,11.97
2023-05-02T03:35:38.626Z,11.92
2023-05-02T03:38:06.334Z,11.97
2023-05-02T03:40:34.352Z,11.99
2023-05-02T03:43:02.161Z,12.00
2023-05-02T03:45:30.319Z,12.02
2023-05-02T03:47:58.163Z,12.04
2023-05-02T03:50:25.886Z,12.08
2023-05-02T03:52:53.546Z,12.09
2023-05-02T03:55:22.026Z,12.07
2023-05-02T03:57:49.685Z,11.80
2023-05-02T04:00:18.100Z,12.02
2023-05-02T04:02:46.626Z,12.13
2023-05-02T04:05:14.993Z,12.08
2023-05-02T04:07:42.811Z,12.14
2023-05-02T04:10:16.484Z,12.17
2023-05-02T04:12:44.894Z,12.18
2023-05-02T04:15:13.097Z,11.92
2023-05-02T04:17:40.897Z,12.20
2023-05-02T04:20:09.919Z,12.18
2023-05-02T04:22:42.187Z,11.90
2023-05-02T04:25:09.887Z,12.28
2023-05-02T04:27:38.619Z,12.22
2023-05-02T04:30:07.758Z,12.22
2023-05-02T04:32:35.478Z,12.27
2023-05-02T04:35:04.776Z,11.98
2023-05-02T04:37:32.446Z,12.32
2023-05-02T04:40:01.105Z,12.39
2023-05-02T04:42:30.992Z,12.48
2023-05-02T04:44:58.850Z,12.58
2023-05-02T04:47:26.665Z,12.35
2023-05-02T04:49:54.718Z,12.63
2023-05-02T04:52:22.292Z,12.72
2023-05-02T04:54:49.994Z,12.86
2023-05-02T04:57:17.811Z,12.93
2023-05-02T04:59:46.703Z,12.95
2023-05-02T05:02:14.394Z,13.07
2023-05-02T05:04:42.234Z,12.92
2023-05-02T05:07:09.907Z,13.26
2023-05-02T05:09:37.585Z,13.44
2023-05-02T05:12:05.447Z,13.35
2023-05-02T05:14:34.357Z,13.46
2023-05-02T05:17:02.234Z,13.73
2023-05-02T05:19:30.272Z,13.85
2023-05-02T05:21:58.225Z,13.98
2023-05-02T05:24:25.920Z,14.06
2023-05-02T05:26:54.203Z,14.08
2023-05-02T05:29:22.298Z,14.20
2023-05-02T05:31:50.043Z,14.29
2023-05-02T05:34:18.981Z,14.35
2023-05-02T05:36:46.788Z,14.49
2023-05-02T05:39:14.405Z,14.66
2023-05-02T05:41:43.234Z,14.73
2023-05-02T05:44:11.337Z,14.54
2023-05-02T05:46:39.235Z,14.79
2023-05-02T05:49:07.994Z,14.63
2023-05-02T05:51:36.649Z,14.98
2023-05-02T05:54:05.911Z,15.11
2023-05-02T05:56:35.064Z,15.16
2023-05-02T05:59:03.988Z,15.26
2023-05-02T06:01:31.557Z,15.38
2023-05-02T06:03:59.469Z,15.47
2023-05-02T06:06:27.661Z,15.74
2023-05-02T06:08:55.940Z,15.93
2023-05-02T06:11:27.140Z,16.03
2023-05-02T06:13:55.043Z,15.88
2023-05-02T06:16:22.957Z,15.96
2023-05-02T06:18:54.265Z,16.32
2023-05-02T06:21:22.030Z,16.49
2023-05-02T06:23:49.778Z,16.59
2023-05-02T06:26:17.688Z,16.59
2023-05-02T06:28:45.198Z,16.77
2023-05-02T06:31:12.778Z,16.59
2023-05-02T06:33:41.183Z,16.91
2023-05-02T06:36:08.658Z,16.97
2023-05-02T06:38:36.199Z,16.94
2023-05-02T06:41:04.283Z,16.88
2023-05-02T06:43:32.857Z,17.10
2023-05-02T06:46:01.078Z,17.19
2023-05-02T06:48:28.930Z,17.24
2023-05-02T06:50:56.510Z,17.47
2023-05-02T06:53:23.957Z,17.68
2023-05-02T06:55:52.055Z,17.84
2023-05-02T06:58:21.834Z,18.06
2023-05-02T07:00:50.656Z,18.33
2023-05-02T07:03:18.833Z,18.53
2023-05-02T07:05:46.562Z,18.45
2023-05-02T07:08:14.072Z,18.52
2023-05-02T07:10:41.945Z,18.87
2023-05-02T07:13:09.496Z,18.83
2023-05-02T07:15:36.956Z,19.02
2023-05-02T07:18:04.738Z,19.11
2023-05-02T07:20:32.599Z,19.30
2023-05-02T07:23:00.071Z,19.41
2023-05-02T07:25:28.028Z,19.49
2023-05-02T07:27:55.660Z,19.62
2023-05-02T07:30:23.694Z,19.79
2023-05-02T07:32:51.699Z,19.96
2023-05-02T07:35:19.427Z,20.12
2023-05-02T07:37:47.066Z,20.21
2023-05-02T07:40:15.104Z,20.23
2023-05-02T07:42:42.828Z,20.35
2023-05-02T07:45:11.094Z,20.27
2023-05-02T07:47:38.918Z,20.30
2023-05-02T07:50:06.994Z,20.50
2023-05-02T07:52:34.821Z,20.54
2023-05-02T07:55:02.651Z,20.64
2023-05-02T07:57:30.881Z,20.92
2023-05-02T08:00:00.102Z,21.06
2023-05-02T08:02:29.042Z,21.15
2023-05-02T08:04:56.872Z,21.17
2023-05-02T08:07:24.349Z,21.26
2023-05-02T08:09:52.027Z,21.30
2023-05-02T08:12:19.979Z,21.49
2023-05-02T08:14:47.424Z,21.57
2023-05-02T08:17:14.990Z,21.72
2023-05-02T08:19:42.822Z,21.71
2023-05-02T08:22:10.365Z,21.71
2023-05-02T08:24:38.160Z,21.69
2023-05-02T08:27:06.790Z,21.74
2023-05-02T08:29:34.331Z,21.96
2023-05-02T08:32:02.086Z,21.91
2023-05-02T08:34:29.887Z,21.63
2023-05-02T08:36:58.564Z,21.92
2023-05-02T08:39:26.236Z,21.88
2023-05-02T08:41:54.100Z,21.74
2023-05-02T08:44:21.800Z,22.01
2023-05-02T08:46:51.146Z,22.29
2023-05-02T08:49:22.973Z,22.36
2023-05-02T08:51:52.084Z,22.44
2023-05-02T08:54:21.236Z,22.47
2023-05-02T08:56:49.230Z,22.48
2023-05-02T08:59:16.846Z,22.62
2023-05-02T09:01:49.356Z,22.79
2023-05-02T09:04:23.351Z,22.99
2023-05-02T09:06:50.886Z,23.03
2023-05-02T09:09:19.564Z,23.10
2023-05-02T09:11:47.896Z,22.71
2023-05-02T09:14:16.949Z,23.07
2023-05-02T09:16:45.145Z,23.56
2023-05-02T09:19:25.089Z,23.51
2023-05-02T09:21:59.138Z,23.90
2023-05-02T09:24:27.972Z,23.28
2023-05-02T09:27:04.253Z,23.14
2023-05-02T09:29:38.035Z,23.02
2023-05-02T09:32:06.968Z,22.94
2023-05-02T09:34:37.408Z,23.22
2023-05-02T09:37:05.726Z,23.27
2023-05-02T09:39:33.642Z,23.33
2023-05-02T09:42:02.757Z,23.48
2023-05-02T09:44:37.824Z,23.52
2023-05-02T09:47:06.998Z,23.62
2023-05-02T09:49:45.896Z,23.74
2023-05-02T09:52:16.820Z,23.75
2023-05-02T09:54:46.782Z,23.71
2023-05-02T09:57:15.167Z,23.53
2023-05-02T09:59:58.571Z,23.64
2023-05-02T10:02:26.432Z,24.01
2023-05-02T10:04:57.415Z,24.01
2023-05-02T10:07:26.411Z,24.30
2023-05-02T10:09:58.477Z,24.13
2023-05-02T10:12:28.591Z,24.23
2023-05-02T10:15:03.406Z,24.34
2023-05-02T10:17:34.237Z,24.44
2023-05-02T10:20:06.815Z,24.69
2023-05-02T10:22:36.216Z,24.01
2023-05-02T10:25:05.114Z,24.41
2023-05-02T10:27:33.550Z,24.53
2023-05-02T10:30:04.098Z,24.80
2023-05-02T10:32:37.999Z,24.62
2023-05-02T10:35:06.679Z,24.88
2023-05-02T10:37:37.802Z,25.00
2023-05-02T10:40:06.617Z,25.10
2023-05-02T10:42:42.170Z,24.97
2023-05-02T10:45:35.265Z,24.93
2023-05-02T10:48:25.975Z,24.84
2023-05-02T10:50:58.428Z,24.77
2023-05-02T10:53:40.356Z,25.10
2023-05-02T10:56:21.169Z,24.49
2023-05-02T10:58:51.475Z,24.67
2023-05-02T11:01:25.049Z,24.69
2023-05-02T11:03:59.413Z,24.64
2023-05-02T11:06:28.909Z,24.86
2023-05-02T11:09:18.756Z,24.99
2023-05-02T11:11:48.224Z,25.46
2023-05-02T11:14:31.115Z,25.63
2023-05-02T11:17:01.659Z,25.42
2023-05-02T11:19:53.963Z,25.68
2023-05-02T11:22:23.267Z,25.65
2023-05-02T11:24:51.843Z,25.86
2023-05-02T11:27:32.000Z,25.41
2023-05-02T11:30:01.113Z,25.32
2023-05-02T11:32:44.467Z,25.23
2023-05-02T11:35:20.329Z,24.86
2023-05-02T11:37:54.432Z,24.70
2023-05-02T11:40:24.086Z,24.85
2023-05-02T11:42:52.054Z,24.70
2023-05-02T11:45:21.067Z,24.69
2023-05-02T11:47:51.026Z,24.79
2023-05-02T11:50:18.788Z,24.81
2023-05-02T11:52:46.409Z,25.29
2023-05-02T11:55:15.956Z,25.83
2023-05-02T11:57:43.694Z,25.47
2023-05-02T12:00:13.089Z,25.30
2023-05-02T12:02:45.871Z,25.31
2023-05-02T12:05:15.011Z,25.20
2023-05-02T12:07:45.894Z,25.34
2023-05-02T12:10:14.557Z,25.59
2023-05-02T12:12:44.349Z,25.69
2023-05-02T12:15:13.461Z,26.24
2023-05-02T12:17:48.613Z,26.44
2023-05-02T12:20:18.070Z,26.46
2023-05-02T12:22:46.674Z,26.52
2023-05-02T12:25:14.208Z,26.60
2023-05-02T12:27:42.063Z,26.69
2023-05-02T12:30:10.083Z,27.01
2023-05-02T12:32:38.724Z,26.63
2023-05-02T12:35:21.651Z,26.52
2023-05-02T12:37:49.376Z,26.72
2023-05-02T12:40:17.695Z,26.88
2023-05-02T12:42:59.968Z,26.62
2023-05-02T12:45:29.328Z,27.09
2023-05-02T12:47:57.175Z,26.76
2023-05-02T12:50:36.814Z,26.52
2023-05-02T12:53:06.326Z,26.37
2023-05-02T12:55:33.947Z,26.88
2023-05-02T12:58:05.675Z,26.68
2023-05-02T13:00:37.717Z,26.49
2023-05-02T13:03:06.226Z,26.49
2023-05-02T13:05:35.214Z,26.51
2023-05-02T13:08:02.884Z,26.62
2023-05-02T13:10:30.500Z,27.13
2023-05-02T13:12:58.430Z,27.19
2023-05-02T13:15:25.984Z,27.23
2023-05-02T13:17:53.709Z,26.95
2023-05-02T13:20:21.550Z,27.00
2023-05-02T13:22:49.228Z,27.31
2023-05-02T13:25:16.819Z,26.94
2023-05-02T13:27:45.971Z,26.85
2023-05-02T13:30:14.449Z,26.91
2023-05-02T13:32:42.059Z,26.75
2023-05-02T13:35:13.924Z,27.10
2023-05-02T13:37:41.899Z,26.99
2023-05-02T13:40:10.101Z,26.49
2023-05-02T13:42:37.754Z,26.65
2023-05-02T13:45:06.558Z,26.58
2023-05-02T13:47:34.767Z,26.71
2023-05-02T13:50:03.470Z,26.70
2023-05-02T13:52:31.354Z,26.01
2023-05-02T13:54:59.416Z,25.51
2023-05-02T13:57:27.109Z,25.25
2023-05-02T13:59:54.810Z,25.21
2023-05-02T14:02:22.785Z,25.56
2023-05-02T14:04:50.608Z,25.62
2023-05-02T14:07:18.256Z,25.95
2023-05-02T14:09:45.820Z,26.30
2023-05-02T14:12:13.792Z,26.42
2023-05-02T14:14:41.316Z,26.76
2023-05-02T14:17:08.783Z,25.95
2023-05-02T14:19:36.680Z,25.38
2023-05-02T14:22:04.372Z,25.41
2023-05-02T14:24:32.020Z,25.43
2023-05-02T14:26:59.871Z,25.32
2023-05-02T14:29:27.547Z,24.47
2023-05-02T14:31:55.120Z,24.69
2023-05-02T14:34:26.802Z,24.64
2023-05-02T14:36:54.330Z,24.62
2023-05-02T14:39:21.893Z,24.58
2023-05-02T14:41:49.757Z,24.95
2023-05-02T14:44:18.374Z,24.97
2023-05-02T14:46:45.869Z,24.80
2023-05-02T14:49:13.685Z,25.52
2023-05-02T14:51:42.876Z,25.63
2023-05-02T14:54:10.395Z,25.88
2023-05-02T14:56:39.000Z,25.99
2023-05-02T14:59:06.449Z,26.21
2023-05-02T15:01:34.269Z,26.41
2023-05-02T15:04:06.790Z,26.54
2023-05-02T15:06:36.018Z,26.41
2023-05-02T15:09:05.000Z,26.51
2023-05-02T15:11:32.985Z,26.50
2023-05-02T15:14:00.921Z,26.37
2023-05-02T15:16:29.819Z,26.43
2023-05-02T15:18:57.529Z,26.54
2023-05-02T15:21:25.158Z,26.59
2023-05-02T15:23:53.535Z,26.58
2023-05-02T15:26:21.429Z,26.49
2023-05-02T15:28:48.884Z,26.51
2023-05-02T15:31:17.546Z,26.40
2023-05-02T15:33:45.169Z,26.07
2023-05-02T15:36:12.674Z,25.82
2023-05-02T15:38:42.801Z,25.63
2023-05-02T15:41:13.482Z,25.42
2023-05-02T15:43:41.239Z,25.17
2023-05-02T15:46:08.889Z,25.10
2023-05-02T15:48:36.418Z,24.98
2023-05-02T15:51:05.514Z,24.80
2023-05-02T15:53:33.095Z,24.58
2023-05-02T15:56:00.561Z,24.40
2023-05-02T15:58:28.522Z,24.31
2023-05-02T16:00:56.246Z,24.14
2023-05-02T16:03:24.022Z,23.97
2023-05-02T16:05:56.061Z,23.69
2023-05-02T16:08:23.994Z,23.64
2023-05-02T16:10:51.618Z,23.55
2023-05-02T16:13:19.563Z,23.44
2023-05-02T16:15:52.419Z,23.11
2023-05-02T16:18:20.126Z,23.13
2023-05-02T16:20:49.780Z,23.00
2023-05-02T16:23:17.910Z,22.96
2023-05-02T16:25:45.328Z,22.85
2023-05-02T16:28:13.082Z,22.79
2023-05-02T16:30:40.653Z,22.72
2023-05-02T16:33:08.671Z,22.65
2023-05-02T16:35:36.534Z,22.62
2023-05-02T16:38:04.157Z,22.55
2023-05-02T16:40:31.874Z,22.43
2023-05-02T16:42:59.793Z,21.91
2023-05-02T16:45:27.331Z,22.05
2023-05-02T16:48:02.609Z,21.96
2023-05-02T16:50:30.415Z,22.13
2023-05-02T16:52:57.941Z,21.73
2023-05-02T16:55:25.500Z,21.78
2023-05-02T16:57:53.255Z,21.84
2023-05-02T17:00:20.839Z,21.74
2023-05-02T17:02:48.669Z,21.66
2023-05-02T17:05:16.980Z,21.30
2023-05-02T17:07:44.396Z,21.44
2023-05-02T17:10:12.401Z,21.35
2023-05-02T17:12:40.248Z,21.24
2023-05-02T17:15:08.075Z,21.12
2023-05-02T17:17:36.510Z,21.02
2023-05-02T17:20:06.415Z,20.92
2023-05-02T17:22:35.655Z,20.74
2023-05-02T17:25:07.534Z,20.71
2023-05-02T17:27:35.729Z,20.59
2023-05-02T17:30:05.030Z,20.50
2023-05-02T17:32:34.854Z,20.15
2023-05-02T17:35:03.069Z,20.32
2023-05-02T17:37:31.020Z,20.23
2023-05-02T17:40:02.236Z,20.13
2023-05-02T17:42:30.261Z,20.05
2023-05-02T17:44:57.714Z,19.95
2023-05-02T17:47:25.738Z,19.89
2023-05-02T17:49:53.940Z,19.86
2023-05-02T17:52:21.791Z,19.82
2023-05-02T17:54:49.368Z,19.78
2023-05-02T17:57:17.266Z,19.72
2023-05-02T17:59:45.259Z,19.67
2023-05-02T18:02:13.582Z,19.64
2023-05-02T18:04:43.299Z,19.62
2023-05-02T18:07:11.553Z,19.59
2023-05-02T18:09:39.190Z,19.57
2023-05-02T18:12:07.167Z,19.52
2023-05-02T18:14:34.931Z,19.48
2023-05-02T18:17:03.285Z,19.46
2023-05-02T18:19:31.144Z,19.43
2023-05-02T18:21:59.103Z,19.43
2023-05-02T18:24:26.595Z,19.40
2023-05-02T18:26:54.670Z,19.35
2023-05-02T18:29:22.523Z,19.10
2023-05-02T18:31:52.643Z,19.38
2023-05-02T18:34:20.738Z,19.36
2023-05-02T18:36:48.524Z,19.34
2023-05-02T18:39:16.181Z,19.33
2023-05-02T18:41:44.602Z,19.31
2023-05-02T18:44:13.052Z,19.27
2023-05-02T18:46:40.618Z,19.23
2023-05-02T18:49:09.263Z,19.08
2023-05-02T18:51:37.190Z,19.18
2023-05-02T18:54:06.039Z,19.13
2023-05-02T18:56:33.807Z,19.11
2023-05-02T18:59:02.004Z,18.83
2023-05-02T19:01:29.781Z,19.07
2023-05-02T19:04:00.773Z,19.06
2023-05-02T19:06:29.445Z,19.03
2023-05-02T19:08:58.594Z,19.02
2023-05-02T19:11:26.267Z,18.75
2023-05-02T19:13:56.757Z,18.97
2023-05-02T19:16:27.147Z,18.60
2023-05-02T19:18:55.914Z,18.90
2023-05-02T19:21:24.482Z,18.86
2023-05-02T19:23:52.808Z,18.82
2023-05-02T19:26:20.666Z,18.52
2023-05-02T19:28:49.172Z,18.72
2023-05-02T19:31:18.734Z,18.69
2023-05-02T19:33:54.825Z,18.66
2023-05-02T19:36:23.892Z,18.34
2023-05-02T19:38:58.284Z,18.58
2023-05-02T19:41:26.709Z,18.51
2023-05-02T19:43:56.659Z,18.21
2023-05-02T19:46:24.432Z,18.43
2023-05-02T19:48:52.590Z,18.38
2023-05-02T19:51:25.661Z,18.34
2023-05-02T19:53:54.340Z,18.31
2023-05-02T19:56:25.385Z,18.24
2023-05-02T19:58:54.167Z,18.21
2023-05-02T20:01:22.243Z,18.16
2023-05-02T20:03:50.725Z,17.86
2023-05-02T20:06:19.292Z,18.10
2023-05-02T20:08:47.661Z,18.06
2023-05-02T20:11:15.748Z,18.03
2023-05-02T20:13:43.278Z,17.99
2023-05-02T20:16:11.028Z,17.93
2023-05-02T20:18:39.639Z,17.88
2023-05-02T20:21:07.204Z,17.86
2023-05-02T20:23:34.910Z,17.83
2023-05-02T20:26:02.634Z,17.77
2023-05-02T20:28:30.262Z,17.75
2023-05-02T20:30:57.750Z,17.73
2023-05-02T20:33:33.543Z,17.72
2023-05-02T20:36:09.040Z,17.71
2023-05-02T20:38:42.466Z,17.65
2023-05-02T20:41:14.231Z,17.41
2023-05-02T20:43:45.091Z,17.66
2023-05-02T20:46:16.356Z,17.65
2023-05-02T20:48:44.210Z,17.61
2023-05-02T20:51:11.644Z,17.61
2023-05-02T20:53:40.047Z,17.58
2023-05-02T20:56:07.829Z,17.53
2023-05-02T20:58:35.458Z,17.53
2023-05-02T21:01:03.015Z,17.50
2023-05-02T21:03:32.140Z,17.20
2023-05-02T21:05:59.727Z,17.07
2023-05-02T21:08:27.254Z,17.13
2023-05-02T21:10:55.134Z,17.40
2023-05-02T21:13:22.687Z,17.39
2023-05-02T21:15:50.413Z,17.11
2023-05-02T21:18:18.305Z,17.36
2023-05-02T21:20:48.630Z,17.36
2023-05-02T21:23:16.128Z,17.34
2023-05-02T21:25:43.827Z,17.33
2023-05-02T21:28:11.650Z,17.33
2023-05-02T21:30:39.193Z,17.05
2023-05-02T21:33:07.800Z,17.26
2023-05-02T21:35:35.350Z,17.34
2023-05-02T21:38:04.131Z,17.32
2023-05-02T21:40:34.576Z,17.34
2023-05-02T21:43:01.966Z,17.34
2023-05-02T21:45:30.161Z,17.33
2023-05-02T21:47:57.973Z,17.33
2023-05-02T21:50:25.507Z,17.33
2023-05-02T21:52:53.581Z,17.31
2023-05-02T21:55:21.340Z,17.30
2023-05-02T21:57:48.874Z,17.28
2023-05-02T22:00:16.489Z,16.99
2023-05-02T22:02:44.468Z,17.24
2023-05-02T22:05:13.680Z,16.94
2023-05-02T22:07:41.827Z,17.22
2023-05-02T22:10:11.623Z,17.21
2023-05-02T22:12:39.303Z,16.91
2023-05-02T22:15:08.399Z,17.18
2023-05-02T22:17:36.446Z,17.15
2023-05-02T22:20:06.458Z,17.15
2023-05-02T22:22:34.086Z,17.12
2023-05-02T22:25:02.973Z,17.11
2023-05-02T22:27:30.745Z,17.10
2023-05-02T22:29:58.300Z,17.10
2023-05-02T22:32:26.915Z,16.80
2023-05-02T22:34:54.488Z,16.75
2023-05-02T22:37:22.028Z,16.76
2023-05-02T22:39:49.900Z,16.73
2023-05-02T22:42:17.428Z,17.00
2023-05-02T22:44:54.021Z,16.98
2023-05-02T22:47:22.882Z,16.97
2023-05-02T22:49:52.685Z,16.95
2023-05-02T22:52:20.797Z,16.94
2023-05-02T22:54:48.655Z,16.94
2023-05-02T22:57:16.221Z,16.88
2023-05-02T22:59:43.786Z,16.83
2023-05-02T23:02:12.296Z,16.82
2023-05-02T23:04:39.888Z,16.68
2023-05-02T23:07:07.436Z,16.51
2023-05-02T23:09:35.646Z,16.16
2023-05-02T23:12:03.969Z,16.41
2023-05-02T23:14:31.574Z,16.33
2023-05-02T23:17:01.475Z,16.15
2023-05-02T23:19:29.486Z,16.08
2023-05-02T23:21:57.940Z,15.81
2023-05-02T23:24:26.745Z,15.99
2023-05-02T23:26:54.251Z,15.82
2023-05-02T23:29:21.986Z,15.87
2023-05-02T23:31:54.576Z,15.49
2023-05-02T23:34:22.391Z,15.76
2023-05-02T23:36:52.167Z,15.63
2023-05-02T23:39:19.788Z,15.63
2023-05-02T23:41:48.098Z,15.44
2023-05-02T23:44:16.010Z,15.53
2023-05-02T23:46:43.536Z,15.49
2023-05-02T23:49:10.986Z,15.53
2023-05-02T23:51:39.032Z,15.52
2023-05-02T23:54:07.393Z,15.52
2023-05-02T23:56:35.144Z,15.45
2023-05-02T23:59:02.977Z,15.13
